sensor_id;sensor_type;location;lat;lon;timestamp;P1;durP1;ratioP1;P2;durP2;ratioP2
53666;SDS011;39568;51.026;5.468;2022-09-02T00:01:25;4.88;;;1.50;;
53666;SDS011;39568;51.026;5.468;2022-09-02T00:03:54;2.08;;;1.70;;
53666;SDS011;39568;51.026;5.468;2022-09-02T00:06:23;4.93;;;2.45;;
53666;SDS011;39568;51.026;5.468;2022-09-02T00:08:49;8.70;;;3.13;;
53666;SDS011;39568;51.026;5.468;2022-09-02T00:11:18;5.53;;;1.50;;
53666;SDS011;39568;51.026;5.468;2022-09-02T00:13:47;4.55;;;2.08;;
53666;SDS011;39568;51.026;5.468;2022-09-02T00:16:16;5.47;;;1.50;;
53666;SDS011;39568;51.026;5.468;2022-09-02T00:18:42;6.05;;;1.90;;
53666;SDS011;39568;51.026;5.468;2022-09-02T00:21:09;5.57;;;1.40;;
53666;SDS011;39568;51.026;5.468;2022-09-02T00:23:38;3.42;;;1.20;;
53666;SDS011;39568;51.026;5.468;2022-09-02T00:26:04;4.97;;;2.30;;
53666;SDS011;39568;51.026;5.468;2022-09-02T00:28:32;3.83;;;1.83;;
53666;SDS011;39568;51.026;5.468;2022-09-02T00:30:59;1.80;;;1.60;;
53666;SDS011;39568;51.026;5.468;2022-09-02T00:33:27;8.20;;;2.03;;
53666;SDS011;39568;51.026;5.468;2022-09-02T00:35:57;6.13;;;1.75;;
53666;SDS011;39568;51.026;5.468;2022-09-02T00:38:24;3.55;;;1.65;;
53666;SDS011;39568;51.026;5.468;2022-09-02T00:40:57;11.52;;;1.73;;
53666;SDS011;39568;51.026;5.468;2022-09-02T00:43:36;13.00;;;2.10;;
53666;SDS011;39568;51.026;5.468;2022-09-02T00:46:06;3.25;;;1.92;;
53666;SDS011;39568;51.026;5.468;2022-09-02T00:48:38;6.13;;;1.70;;
53666;SDS011;39568;51.026;5.468;2022-09-02T00:51:07;7.30;;;1.55;;
53666;SDS011;39568;51.026;5.468;2022-09-02T00:53:36;5.07;;;1.80;;
53666;SDS011;39568;51.026;5.468;2022-09-02T00:56:09;5.97;;;1.55;;
53666;SDS011;39568;51.026;5.468;2022-09-02T00:58:39;5.75;;;1.80;;
53666;SDS011;39568;51.026;5.468;2022-09-02T01:01:10;7.72;;;1.83;;
53666;SDS011;39568;51.026;5.468;2022-09-02T01:03:39;11.05;;;1.40;;
53666;SDS011;39568;51.026;5.468;2022-09-02T01:06:06;5.18;;;1.35;;
53666;SDS011;39568;51.026;5.468;2022-09-02T01:08:34;3.65;;;1.98;;
53666;SDS011;39568;51.026;5.468;2022-09-02T01:11:03;1.85;;;1.55;;
53666;SDS011;39568;51.026;5.468;2022-09-02T01:13:31;13.50;;;1.92;;
53666;SDS011;39568;51.026;5.468;2022-09-02T01:18:31;2.15;;;1.48;;
53666;SDS011;39568;51.026;5.468;2022-09-02T01:21:02;3.85;;;1.85;;
53666;SDS011;39568;51.026;5.468;2022-09-02T01:23:36;2.47;;;1.60;;
53666;SDS011;39568;51.026;5.468;2022-09-02T01:26:11;1.63;;;1.40;;
53666;SDS011;39568;51.026;5.468;2022-09-02T01:28:38;3.22;;;1.73;;
53666;SDS011;39568;51.026;5.468;2022-09-02T01:31:06;4.47;;;1.90;;
53666;SDS011;39568;51.026;5.468;2022-09-02T01:33:32;3.55;;;1.77;;
53666;SDS011;39568;51.026;5.468;2022-09-02T01:35:59;3.70;;;2.22;;
53666;SDS011;39568;51.026;5.468;2022-09-02T01:38:28;2.88;;;1.52;;
53666;SDS011;39568;51.026;5.468;2022-09-02T01:40:57;12.40;;;1.85;;
53666;SDS011;39568;51.026;5.468;2022-09-02T01:43:31;1.80;;;1.45;;
53666;SDS011;39568;51.026;5.468;2022-09-02T01:45:58;3.75;;;1.92;;
53666;SDS011;39568;51.026;5.468;2022-09-02T01:48:25;4.88;;;1.92;;
53666;SDS011;39568;51.026;5.468;2022-09-02T01:50:53;7.22;;;2.35;;
53666;SDS011;39568;51.026;5.468;2022-09-02T01:53:22;7.13;;;1.92;;
53666;SDS011;39568;51.026;5.468;2022-09-02T01:55:49;4.35;;;1.67;;
53666;SDS011;39568;51.026;5.468;2022-09-02T01:58:18;3.00;;;1.40;;
53666;SDS011;39568;51.026;5.468;2022-09-02T02:00:45;5.68;;;1.55;;
53666;SDS011;39568;51.026;5.468;2022-09-02T02:03:12;6.28;;;1.40;;
53666;SDS011;39568;51.026;5.468;2022-09-02T02:05:41;5.45;;;1.40;;
53666;SDS011;39568;51.026;5.468;2022-09-02T02:08:13;5.80;;;2.00;;
53666;SDS011;39568;51.026;5.468;2022-09-02T02:10:41;5.85;;;2.00;;
53666;SDS011;39568;51.026;5.468;2022-09-02T02:13:16;6.63;;;1.92;;
53666;SDS011;39568;51.026;5.468;2022-09-02T02:15:46;2.63;;;1.98;;
53666;SDS011;39568;51.026;5.468;2022-09-02T02:18:13;3.03;;;1.38;;
53666;SDS011;39568;51.026;5.468;2022-09-02T02:20:41;9.57;;;1.65;;
53666;SDS011;39568;51.026;5.468;2022-09-02T02:23:08;1.92;;;1.83;;
53666;SDS011;39568;51.026;5.468;2022-09-02T02:25:35;4.63;;;1.70;;
53666;SDS011;39568;51.026;5.468;2022-09-02T02:28:02;4.43;;;1.52;;
53666;SDS011;39568;51.026;5.468;2022-09-02T02:30:30;3.25;;;1.52;;
53666;SDS011;39568;51.026;5.468;2022-09-02T02:32:57;1.67;;;1.17;;
53666;SDS011;39568;51.026;5.468;2022-09-02T02:35:24;9.25;;;2.22;;
53666;SDS011;39568;51.026;5.468;2022-09-02T02:37:51;1.50;;;1.20;;
53666;SDS011;39568;51.026;5.468;2022-09-02T02:40:19;1.13;;;1.13;;
53666;SDS011;39568;51.026;5.468;2022-09-02T02:42:48;4.50;;;1.45;;
53666;SDS011;39568;51.026;5.468;2022-09-02T02:45:22;7.47;;;1.77;;
53666;SDS011;39568;51.026;5.468;2022-09-02T02:47:52;5.20;;;1.60;;
53666;SDS011;39568;51.026;5.468;2022-09-02T02:50:20;3.28;;;1.63;;
53666;SDS011;39568;51.026;5.468;2022-09-02T02:52:48;5.32;;;2.22;;
53666;SDS011;39568;51.026;5.468;2022-09-02T02:55:15;3.80;;;1.33;;
53666;SDS011;39568;51.026;5.468;2022-09-02T02:57:42;6.22;;;1.50;;
53666;SDS011;39568;51.026;5.468;2022-09-02T03:00:10;1.40;;;1.30;;
53666;SDS011;39568;51.026;5.468;2022-09-02T03:02:38;4.32;;;1.98;;
53666;SDS011;39568;51.026;5.468;2022-09-02T03:05:07;5.70;;;1.30;;
53666;SDS011;39568;51.026;5.468;2022-09-02T03:07:35;7.82;;;1.40;;
53666;SDS011;39568;51.026;5.468;2022-09-02T03:10:02;5.35;;;1.45;;
53666;SDS011;39568;51.026;5.468;2022-09-02T03:12:29;4.68;;;2.38;;
53666;SDS011;39568;51.026;5.468;2022-09-02T03:14:57;4.10;;;1.70;;
53666;SDS011;39568;51.026;5.468;2022-09-02T03:17:23;3.35;;;1.80;;
53666;SDS011;39568;51.026;5.468;2022-09-02T03:19:51;3.22;;;1.38;;
53666;SDS011;39568;51.026;5.468;2022-09-02T03:22:19;4.22;;;1.65;;
53666;SDS011;39568;51.026;5.468;2022-09-02T03:24:46;4.88;;;1.23;;
53666;SDS011;39568;51.026;5.468;2022-09-02T03:27:12;13.18;;;1.45;;
53666;SDS011;39568;51.026;5.468;2022-09-02T03:29:39;27.65;;;3.75;;
53666;SDS011;39568;51.026;5.468;2022-09-02T03:32:06;4.97;;;1.33;;
53666;SDS011;39568;51.026;5.468;2022-09-02T03:34:32;1.98;;;1.45;;
53666;SDS011;39568;51.026;5.468;2022-09-02T03:36:59;3.90;;;1.77;;
53666;SDS011;39568;51.026;5.468;2022-09-02T03:39:27;2.63;;;1.45;;
53666;SDS011;39568;51.026;5.468;2022-09-02T03:41:54;1.52;;;1.42;;
53666;SDS011;39568;51.026;5.468;2022-09-02T03:44:20;2.22;;;1.10;;
53666;SDS011;39568;51.026;5.468;2022-09-02T03:46:47;7.38;;;2.08;;
53666;SDS011;39568;51.026;5.468;2022-09-02T03:49:14;4.88;;;1.65;;
53666;SDS011;39568;51.026;5.468;2022-09-02T03:51:41;1.50;;;1.30;;
53666;SDS011;39568;51.026;5.468;2022-09-02T03:54:09;2.47;;;1.58;;
53666;SDS011;39568;51.026;5.468;2022-09-02T03:56:37;7.20;;;1.90;;
53666;SDS011;39568;51.026;5.468;2022-09-02T03:59:04;2.03;;;1.40;;
53666;SDS011;39568;51.026;5.468;2022-09-02T04:01:31;3.10;;;1.73;;
53666;SDS011;39568;51.026;5.468;2022-09-02T04:03:58;8.57;;;1.90;;
53666;SDS011;39568;51.026;5.468;2022-09-02T04:06:25;2.08;;;1.23;;
53666;SDS011;39568;51.026;5.468;2022-09-02T04:08:52;4.82;;;1.20;;
53666;SDS011;39568;51.026;5.468;2022-09-02T04:11:19;11.23;;;1.90;;
53666;SDS011;39568;51.026;5.468;2022-09-02T04:13:49;1.50;;;1.40;;
53666;SDS011;39568;51.026;5.468;2022-09-02T04:16:18;2.65;;;1.50;;
53666;SDS011;39568;51.026;5.468;2022-09-02T04:18:46;5.65;;;1.65;;
53666;SDS011;39568;51.026;5.468;2022-09-02T04:21:13;10.05;;;1.88;;
53666;SDS011;39568;51.026;5.468;2022-09-02T04:23:40;1.77;;;1.50;;
53666;SDS011;39568;51.026;5.468;2022-09-02T04:26:08;2.00;;;1.63;;
53666;SDS011;39568;51.026;5.468;2022-09-02T04:28:36;4.32;;;1.40;;
53666;SDS011;39568;51.026;5.468;2022-09-02T04:31:05;3.28;;;1.40;;
53666;SDS011;39568;51.026;5.468;2022-09-02T04:33:33;4.50;;;1.63;;
53666;SDS011;39568;51.026;5.468;2022-09-02T04:36:02;9.52;;;2.15;;
53666;SDS011;39568;51.026;5.468;2022-09-02T04:38:30;11.05;;;2.28;;
53666;SDS011;39568;51.026;5.468;2022-09-02T04:40:56;9.65;;;1.98;;
53666;SDS011;39568;51.026;5.468;2022-09-02T04:43:23;13.48;;;2.20;;
53666;SDS011;39568;51.026;5.468;2022-09-02T04:45:50;2.95;;;1.90;;
53666;SDS011;39568;51.026;5.468;2022-09-02T04:48:18;9.02;;;2.20;;
53666;SDS011;39568;51.026;5.468;2022-09-02T04:50:45;4.70;;;1.75;;
53666;SDS011;39568;51.026;5.468;2022-09-02T04:53:12;7.07;;;1.92;;
53666;SDS011;39568;51.026;5.468;2022-09-02T04:55:38;16.10;;;2.13;;
53666;SDS011;39568;51.026;5.468;2022-09-02T04:58:06;8.48;;;1.50;;
53666;SDS011;39568;51.026;5.468;2022-09-02T05:00:32;5.88;;;1.77;;
53666;SDS011;39568;51.026;5.468;2022-09-02T05:02:59;2.45;;;1.52;;
53666;SDS011;39568;51.026;5.468;2022-09-02T05:05:27;3.58;;;2.08;;
53666;SDS011;39568;51.026;5.468;2022-09-02T05:07:54;1.90;;;1.55;;
53666;SDS011;39568;51.026;5.468;2022-09-02T05:10:20;4.57;;;2.20;;
53666;SDS011;39568;51.026;5.468;2022-09-02T05:12:47;5.60;;;2.05;;
53666;SDS011;39568;51.026;5.468;2022-09-02T05:15:15;5.93;;;1.65;;
53666;SDS011;39568;51.026;5.468;2022-09-02T05:17:42;3.15;;;1.25;;
53666;SDS011;39568;51.026;5.468;2022-09-02T05:20:10;3.92;;;1.35;;
53666;SDS011;39568;51.026;5.468;2022-09-02T05:22:39;7.22;;;1.77;;
53666;SDS011;39568;51.026;5.468;2022-09-02T05:25:07;1.80;;;1.70;;
53666;SDS011;39568;51.026;5.468;2022-09-02T05:27:35;5.50;;;1.65;;
53666;SDS011;39568;51.026;5.468;2022-09-02T05:30:02;3.25;;;1.58;;
53666;SDS011;39568;51.026;5.468;2022-09-02T05:32:30;5.20;;;1.90;;
53666;SDS011;39568;51.026;5.468;2022-09-02T05:34:57;3.30;;;2.08;;
53666;SDS011;39568;51.026;5.468;2022-09-02T05:37:24;2.42;;;1.85;;
53666;SDS011;39568;51.026;5.468;2022-09-02T05:39:52;3.03;;;1.55;;
53666;SDS011;39568;51.026;5.468;2022-09-02T05:42:19;3.95;;;1.73;;
53666;SDS011;39568;51.026;5.468;2022-09-02T05:44:46;10.40;;;2.13;;
53666;SDS011;39568;51.026;5.468;2022-09-02T05:47:13;5.90;;;1.67;;
53666;SDS011;39568;51.026;5.468;2022-09-02T05:49:39;3.20;;;2.03;;
53666;SDS011;39568;51.026;5.468;2022-09-02T05:52:06;5.13;;;2.10;;
53666;SDS011;39568;51.026;5.468;2022-09-02T05:54:36;2.55;;;1.60;;
53666;SDS011;39568;51.026;5.468;2022-09-02T05:57:07;5.88;;;1.73;;
53666;SDS011;39568;51.026;5.468;2022-09-02T05:59:36;12.00;;;1.70;;
53666;SDS011;39568;51.026;5.468;2022-09-02T06:02:06;4.03;;;1.83;;
53666;SDS011;39568;51.026;5.468;2022-09-02T06:04:36;2.45;;;1.52;;
53666;SDS011;39568;51.026;5.468;2022-09-02T06:07:03;7.53;;;1.95;;
53666;SDS011;39568;51.026;5.468;2022-09-02T06:09:30;7.82;;;1.77;;
53666;SDS011;39568;51.026;5.468;2022-09-02T06:11:57;3.13;;;1.58;;
53666;SDS011;39568;51.026;5.468;2022-09-02T06:14:26;2.10;;;1.90;;
53666;SDS011;39568;51.026;5.468;2022-09-02T06:16:53;8.68;;;2.03;;
53666;SDS011;39568;51.026;5.468;2022-09-02T06:19:20;13.00;;;1.88;;
53666;SDS011;39568;51.026;5.468;2022-09-02T06:21:49;2.03;;;1.60;;
53666;SDS011;39568;51.026;5.468;2022-09-02T06:24:16;4.72;;;1.67;;
53666;SDS011;39568;51.026;5.468;2022-09-02T06:26:43;5.32;;;1.58;;
53666;SDS011;39568;51.026;5.468;2022-09-02T06:29:10;6.35;;;1.80;;
53666;SDS011;39568;51.026;5.468;2022-09-02T06:31:40;1.77;;;1.60;;
53666;SDS011;39568;51.026;5.468;2022-09-02T06:34:08;22.33;;;2.38;;
53666;SDS011;39568;51.026;5.468;2022-09-02T06:36:37;3.88;;;1.88;;
53666;SDS011;39568;51.026;5.468;2022-09-02T06:39:05;5.25;;;1.95;;
53666;SDS011;39568;51.026;5.468;2022-09-02T06:41:32;7.68;;;1.92;;
53666;SDS011;39568;51.026;5.468;2022-09-02T06:44:00;3.00;;;1.42;;
53666;SDS011;39568;51.026;5.468;2022-09-02T06:46:29;4.35;;;2.05;;
53666;SDS011;39568;51.026;5.468;2022-09-02T06:48:58;4.03;;;1.90;;
53666;SDS011;39568;51.026;5.468;2022-09-02T06:51:25;8.10;;;1.70;;
53666;SDS011;39568;51.026;5.468;2022-09-02T06:53:54;8.02;;;1.67;;
53666;SDS011;39568;51.026;5.468;2022-09-02T06:56:21;4.75;;;1.95;;
53666;SDS011;39568;51.026;5.468;2022-09-02T06:58:50;1.42;;;1.30;;
53666;SDS011;39568;51.026;5.468;2022-09-02T07:01:18;6.40;;;1.98;;
53666;SDS011;39568;51.026;5.468;2022-09-02T07:03:46;11.80;;;1.67;;
53666;SDS011;39568;51.026;5.468;2022-09-02T07:06:36;5.20;;;1.38;;
53666;SDS011;39568;51.026;5.468;2022-09-02T07:09:07;1.90;;;1.42;;
53666;SDS011;39568;51.026;5.468;2022-09-02T07:11:35;3.47;;;1.17;;
53666;SDS011;39568;51.026;5.468;2022-09-02T07:14:02;1.92;;;1.63;;
53666;SDS011;39568;51.026;5.468;2022-09-02T07:16:30;3.15;;;1.33;;
53666;SDS011;39568;51.026;5.468;2022-09-02T07:18:58;7.05;;;1.98;;
53666;SDS011;39568;51.026;5.468;2022-09-02T07:21:26;7.43;;;1.60;;
53666;SDS011;39568;51.026;5.468;2022-09-02T07:23:56;7.55;;;1.73;;
53666;SDS011;39568;51.026;5.468;2022-09-02T07:26:23;6.97;;;1.70;;
53666;SDS011;39568;51.026;5.468;2022-09-02T07:28:51;3.63;;;1.88;;
53666;SDS011;39568;51.026;5.468;2022-09-02T07:31:18;3.25;;;1.70;;
53666;SDS011;39568;51.026;5.468;2022-09-02T07:33:45;5.55;;;1.90;;
53666;SDS011;39568;51.026;5.468;2022-09-02T07:36:12;9.63;;;1.67;;
53666;SDS011;39568;51.026;5.468;2022-09-02T07:38:39;5.47;;;1.85;;
53666;SDS011;39568;51.026;5.468;2022-09-02T07:41:09;2.75;;;1.70;;
53666;SDS011;39568;51.026;5.468;2022-09-02T07:43:37;5.18;;;1.45;;
53666;SDS011;39568;51.026;5.468;2022-09-02T07:46:05;2.50;;;1.48;;
53666;SDS011;39568;51.026;5.468;2022-09-02T07:48:32;10.85;;;1.77;;
53666;SDS011;39568;51.026;5.468;2022-09-02T07:51:00;8.32;;;1.65;;
53666;SDS011;39568;51.026;5.468;2022-09-02T07:53:28;7.93;;;1.60;;
53666;SDS011;39568;51.026;5.468;2022-09-02T07:55:56;2.65;;;1.77;;
53666;SDS011;39568;51.026;5.468;2022-09-02T07:58:24;4.32;;;1.70;;
53666;SDS011;39568;51.026;5.468;2022-09-02T08:00:52;8.73;;;1.52;;
53666;SDS011;39568;51.026;5.468;2022-09-02T08:03:20;10.95;;;1.80;;
53666;SDS011;39568;51.026;5.468;2022-09-02T08:05:47;3.83;;;1.75;;
53666;SDS011;39568;51.026;5.468;2022-09-02T08:08:14;8.00;;;1.70;;
53666;SDS011;39568;51.026;5.468;2022-09-02T08:10:44;2.10;;;1.85;;
53666;SDS011;39568;51.026;5.468;2022-09-02T08:13:11;19.70;;;1.33;;
53666;SDS011;39568;51.026;5.468;2022-09-02T08:15:40;4.00;;;1.58;;
53666;SDS011;39568;51.026;5.468;2022-09-02T08:18:09;6.35;;;2.53;;
53666;SDS011;39568;51.026;5.468;2022-09-02T08:20:36;5.10;;;1.50;;
53666;SDS011;39568;51.026;5.468;2022-09-02T08:23:03;9.73;;;1.67;;
53666;SDS011;39568;51.026;5.468;2022-09-02T08:25:30;13.77;;;1.60;;
53666;SDS011;39568;51.026;5.468;2022-09-02T08:27:57;3.78;;;1.60;;
53666;SDS011;39568;51.026;5.468;2022-09-02T08:30:24;4.72;;;2.08;;
53666;SDS011;39568;51.026;5.468;2022-09-02T08:32:53;4.88;;;1.73;;
53666;SDS011;39568;51.026;5.468;2022-09-02T08:35:19;3.03;;;1.60;;
53666;SDS011;39568;51.026;5.468;2022-09-02T08:37:46;8.10;;;1.92;;
53666;SDS011;39568;51.026;5.468;2022-09-02T08:40:13;5.53;;;1.58;;
53666;SDS011;39568;51.026;5.468;2022-09-02T08:42:44;1.53;;;1.33;;
53666;SDS011;39568;51.026;5.468;2022-09-02T08:45:13;3.50;;;1.52;;
53666;SDS011;39568;51.026;5.468;2022-09-02T08:47:48;10.98;;;1.90;;
53666;SDS011;39568;51.026;5.468;2022-09-02T08:50:20;6.93;;;1.92;;
53666;SDS011;39568;51.026;5.468;2022-09-02T08:52:51;3.83;;;1.55;;
53666;SDS011;39568;51.026;5.468;2022-09-02T08:55:25;4.15;;;2.03;;
53666;SDS011;39568;51.026;5.468;2022-09-02T08:57:57;5.00;;;2.22;;
53666;SDS011;39568;51.026;5.468;2022-09-02T09:00:25;2.70;;;1.55;;
53666;SDS011;39568;51.026;5.468;2022-09-02T09:02:56;3.20;;;1.38;;
53666;SDS011;39568;51.026;5.468;2022-09-02T09:05:32;3.15;;;1.40;;
53666;SDS011;39568;51.026;5.468;2022-09-02T09:08:11;2.40;;;1.40;;
53666;SDS011;39568;51.026;5.468;2022-09-02T09:10:50;14.27;;;2.10;;
53666;SDS011;39568;51.026;5.468;2022-09-02T09:13:39;5.00;;;1.35;;
53666;SDS011;39568;51.026;5.468;2022-09-02T09:16:18;3.85;;;1.27;;
53666;SDS011;39568;51.026;5.468;2022-09-02T09:18:58;4.40;;;1.27;;
53666;SDS011;39568;51.026;5.468;2022-09-02T09:21:33;4.07;;;1.70;;
53666;SDS011;39568;51.026;5.468;2022-09-02T09:24:01;2.40;;;1.60;;
53666;SDS011;39568;51.026;5.468;2022-09-02T09:26:35;3.15;;;1.30;;
53666;SDS011;39568;51.026;5.468;2022-09-02T09:29:05;3.45;;;1.40;;
53666;SDS011;39568;51.026;5.468;2022-09-02T09:31:32;5.53;;;1.30;;
53666;SDS011;39568;51.026;5.468;2022-09-02T09:34:02;9.30;;;1.50;;
53666;SDS011;39568;51.026;5.468;2022-09-02T09:36:45;2.65;;;1.50;;
53666;SDS011;39568;51.026;5.468;2022-09-02T09:39:18;5.25;;;1.30;;
53666;SDS011;39568;51.026;5.468;2022-09-02T09:41:47;8.13;;;1.20;;
53666;SDS011;39568;51.026;5.468;2022-09-02T09:47:09;3.22;;;1.13;;
53666;SDS011;39568;51.026;5.468;2022-09-02T09:49:39;1.73;;;1.40;;
53666;SDS011;39568;51.026;5.468;2022-09-02T09:52:07;2.35;;;1.48;;
53666;SDS011;39568;51.026;5.468;2022-09-02T09:54:34;2.38;;;1.23;;
53666;SDS011;39568;51.026;5.468;2022-09-02T09:57:12;6.47;;;1.30;;
53666;SDS011;39568;51.026;5.468;2022-09-02T09:59:41;4.70;;;1.40;;
53666;SDS011;39568;51.026;5.468;2022-09-02T10:02:18;7.28;;;1.20;;
53666;SDS011;39568;51.026;5.468;2022-09-02T10:04:46;4.75;;;1.60;;
53666;SDS011;39568;51.026;5.468;2022-09-02T10:07:14;6.32;;;1.70;;
53666;SDS011;39568;51.026;5.468;2022-09-02T10:10:07;3.95;;;2.10;;
53666;SDS011;39568;51.026;5.468;2022-09-02T10:12:41;9.35;;;2.20;;
53666;SDS011;39568;51.026;5.468;2022-09-02T10:15:18;4.40;;;2.70;;
53666;SDS011;39568;51.026;5.468;2022-09-02T10:17:54;6.18;;;3.25;;
53666;SDS011;39568;51.026;5.468;2022-09-02T10:20:32;5.57;;;2.30;;
53666;SDS011;39568;51.026;5.468;2022-09-02T10:23:18;3.17;;;2.58;;
53666;SDS011;39568;51.026;5.468;2022-09-02T10:25:54;4.78;;;2.22;;
53666;SDS011;39568;51.026;5.468;2022-09-02T10:28:36;2.60;;;2.33;;
53666;SDS011;39568;51.026;5.468;2022-09-02T10:31:28;5.57;;;2.30;;
53666;SDS011;39568;51.026;5.468;2022-09-02T10:34:05;4.25;;;1.80;;
53666;SDS011;39568;51.026;5.468;2022-09-02T10:36:40;3.55;;;2.40;;
53666;SDS011;39568;51.026;5.468;2022-09-02T10:39:28;7.85;;;3.55;;
53666;SDS011;39568;51.026;5.468;2022-09-02T10:42:06;8.27;;;4.85;;
53666;SDS011;39568;51.026;5.468;2022-09-02T10:44:42;5.45;;;4.47;;
53666;SDS011;39568;51.026;5.468;2022-09-02T10:47:17;8.27;;;4.63;;
53666;SDS011;39568;51.026;5.468;2022-09-02T10:49:53;4.30;;;3.08;;
53666;SDS011;39568;51.026;5.468;2022-09-02T10:52:31;7.47;;;3.92;;
53666;SDS011;39568;51.026;5.468;2022-09-02T10:55:10;6.78;;;3.40;;
53666;SDS011;39568;51.026;5.468;2022-09-02T10:57:44;4.55;;;2.17;;
53666;SDS011;39568;51.026;5.468;2022-09-02T11:00:13;5.70;;;2.28;;
53666;SDS011;39568;51.026;5.468;2022-09-02T11:02:44;7.13;;;3.03;;
53666;SDS011;39568;51.026;5.468;2022-09-02T11:05:15;5.82;;;4.10;;
53666;SDS011;39568;51.026;5.468;2022-09-02T11:07:46;15.27;;;3.58;;
53666;SDS011;39568;51.026;5.468;2022-09-02T11:10:21;8.13;;;4.65;;
53666;SDS011;39568;51.026;5.468;2022-09-02T11:12:51;5.38;;;3.90;;
53666;SDS011;39568;51.026;5.468;2022-09-02T11:15:26;7.03;;;2.95;;
53666;SDS011;39568;51.026;5.468;2022-09-02T11:18:04;5.43;;;2.35;;
53666;SDS011;39568;51.026;5.468;2022-09-02T11:20:39;5.60;;;1.80;;
53666;SDS011;39568;51.026;5.468;2022-09-02T11:23:12;2.25;;;2.05;;
53666;SDS011;39568;51.026;5.468;2022-09-02T11:25:46;2.00;;;1.90;;
53666;SDS011;39568;51.026;5.468;2022-09-02T11:28:26;4.38;;;1.90;;
53666;SDS011;39568;51.026;5.468;2022-09-02T11:30:59;4.05;;;2.20;;
53666;SDS011;39568;51.026;5.468;2022-09-02T11:33:34;4.68;;;1.40;;
53666;SDS011;39568;51.026;5.468;2022-09-02T11:36:17;2.40;;;1.20;;
53666;SDS011;39568;51.026;5.468;2022-09-02T11:38:46;3.33;;;1.10;;
53666;SDS011;39568;51.026;5.468;2022-09-02T11:41:29;1.17;;;0.93;;
53666;SDS011;39568;51.026;5.468;2022-09-02T11:44:32;3.28;;;1.45;;
53666;SDS011;39568;51.026;5.468;2022-09-02T11:50:28;1.50;;;1.02;;
53666;SDS011;39568;51.026;5.468;2022-09-02T11:53:04;3.78;;;1.23;;
53666;SDS011;39568;51.026;5.468;2022-09-02T11:55:45;3.42;;;0.95;;
53666;SDS011;39568;51.026;5.468;2022-09-02T12:01:20;4.47;;;1.10;;
53666;SDS011;39568;51.026;5.468;2022-09-02T12:03:52;0.90;;;0.80;;
53666;SDS011;39568;51.026;5.468;2022-09-02T12:06:23;2.80;;;1.27;;
53666;SDS011;39568;51.026;5.468;2022-09-02T12:11:39;2.25;;;0.93;;
53666;SDS011;39568;51.026;5.468;2022-09-02T12:14:09;4.80;;;0.95;;
53666;SDS011;39568;51.026;5.468;2022-09-02T12:17:00;5.57;;;1.03;;
53666;SDS011;39568;51.026;5.468;2022-09-02T12:19:38;7.88;;;0.90;;
53666;SDS011;39568;51.026;5.468;2022-09-02T12:31:09;2.88;;;0.95;;
53666;SDS011;39568;51.026;5.468;2022-09-02T12:33:43;1.42;;;0.75;;
53666;SDS011;39568;51.026;5.468;2022-09-02T12:42:17;2.30;;;0.68;;
53666;SDS011;39568;51.026;5.468;2022-09-02T12:44:48;1.27;;;0.90;;
53666;SDS011;39568;51.026;5.468;2022-09-02T12:47:23;1.52;;;1.42;;
53666;SDS011;39568;51.026;5.468;2022-09-02T12:50:01;5.03;;;1.10;;
53666;SDS011;39568;51.026;5.468;2022-09-02T12:52:38;3.15;;;0.93;;
53666;SDS011;39568;51.026;5.468;2022-09-02T12:55:08;1.00;;;1.00;;
53666;SDS011;39568;51.026;5.468;2022-09-02T12:57:38;4.75;;;0.90;;
53666;SDS011;39568;51.026;5.468;2022-09-02T13:00:06;3.28;;;1.00;;
53666;SDS011;39568;51.026;5.468;2022-09-02T13:02:39;0.93;;;0.80;;
53666;SDS011;39568;51.026;5.468;2022-09-02T13:05:20;0.93;;;0.93;;
53666;SDS011;39568;51.026;5.468;2022-09-02T13:08:01;4.03;;;0.88;;
53666;SDS011;39568;51.026;5.468;2022-09-02T13:13:30;0.82;;;0.82;;
53666;SDS011;39568;51.026;5.468;2022-09-02T13:16:21;1.48;;;0.73;;
53666;SDS011;39568;51.026;5.468;2022-09-02T13:28:19;2.97;;;0.85;;
53666;SDS011;39568;51.026;5.468;2022-09-02T13:31:04;3.28;;;0.98;;
53666;SDS011;39568;51.026;5.468;2022-09-02T13:33:38;4.78;;;0.85;;
53666;SDS011;39568;51.026;5.468;2022-09-02T13:36:06;1.63;;;0.93;;
53666;SDS011;39568;51.026;5.468;2022-09-02T13:38:35;6.30;;;0.70;;
53666;SDS011;39568;51.026;5.468;2022-09-02T13:41:02;2.55;;;0.68;;
53666;SDS011;39568;51.026;5.468;2022-09-02T13:43:29;1.20;;;0.85;;
53666;SDS011;39568;51.026;5.468;2022-09-02T13:45:58;10.40;;;1.02;;
53666;SDS011;39568;51.026;5.468;2022-09-02T13:48:26;1.38;;;0.60;;
53666;SDS011;39568;51.026;5.468;2022-09-02T13:50:55;1.10;;;0.88;;
53666;SDS011;39568;51.026;5.468;2022-09-02T13:53:26;0.90;;;0.68;;
53666;SDS011;39568;51.026;5.468;2022-09-02T13:55:58;3.40;;;0.80;;
53666;SDS011;39568;51.026;5.468;2022-09-02T13:58:33;1.48;;;1.00;;
53666;SDS011;39568;51.026;5.468;2022-09-02T14:01:18;0.77;;;0.77;;
53666;SDS011;39568;51.026;5.468;2022-09-02T14:03:47;4.10;;;0.77;;
53666;SDS011;39568;51.026;5.468;2022-09-02T14:06:16;1.70;;;0.80;;
53666;SDS011;39568;51.026;5.468;2022-09-02T14:08:47;3.50;;;1.17;;
53666;SDS011;39568;51.026;5.468;2022-09-02T14:11:17;0.80;;;0.75;;
53666;SDS011;39568;51.026;5.468;2022-09-02T14:13:45;1.48;;;0.80;;
53666;SDS011;39568;51.026;5.468;2022-09-02T14:16:23;2.92;;;0.75;;
53666;SDS011;39568;51.026;5.468;2022-09-02T14:19:06;5.05;;;0.80;;
53666;SDS011;39568;51.026;5.468;2022-09-02T14:21:43;0.65;;;0.65;;
53666;SDS011;39568;51.026;5.468;2022-09-02T14:24:13;0.80;;;0.75;;
53666;SDS011;39568;51.026;5.468;2022-09-02T14:26:43;2.85;;;0.80;;
53666;SDS011;39568;51.026;5.468;2022-09-02T14:29:12;4.13;;;1.02;;
53666;SDS011;39568;51.026;5.468;2022-09-02T14:31:41;3.50;;;0.75;;
53666;SDS011;39568;51.026;5.468;2022-09-02T14:36:59;5.05;;;0.90;;
53666;SDS011;39568;51.026;5.468;2022-09-02T14:39:26;4.03;;;0.70;;
53666;SDS011;39568;51.026;5.468;2022-09-02T14:41:54;5.45;;;0.93;;
53666;SDS011;39568;51.026;5.468;2022-09-02T14:44:22;1.08;;;0.77;;
53666;SDS011;39568;51.026;5.468;2022-09-02T14:46:53;3.92;;;0.80;;
53666;SDS011;39568;51.026;5.468;2022-09-02T14:49:23;3.95;;;0.80;;
53666;SDS011;39568;51.026;5.468;2022-09-02T14:51:53;0.93;;;0.80;;
53666;SDS011;39568;51.026;5.468;2022-09-02T14:54:35;2.83;;;0.93;;
53666;SDS011;39568;51.026;5.468;2022-09-02T14:57:05;3.97;;;1.10;;
53666;SDS011;39568;51.026;5.468;2022-09-02T14:59:46;3.38;;;0.70;;
53666;SDS011;39568;51.026;5.468;2022-09-02T15:02:22;1.63;;;1.05;;
53666;SDS011;39568;51.026;5.468;2022-09-02T15:04:54;2.38;;;1.27;;
53666;SDS011;39568;51.026;5.468;2022-09-02T15:07:23;3.42;;;0.68;;
53666;SDS011;39568;51.026;5.468;2022-09-02T15:09:50;1.20;;;1.05;;
53666;SDS011;39568;51.026;5.468;2022-09-02T15:12:19;11.20;;;0.98;;
53666;SDS011;39568;51.026;5.468;2022-09-02T15:14:48;6.22;;;0.63;;
53666;SDS011;39568;51.026;5.468;2022-09-02T15:17:15;2.20;;;0.70;;
53666;SDS011;39568;51.026;5.468;2022-09-02T15:19:42;3.95;;;0.70;;
53666;SDS011;39568;51.026;5.468;2022-09-02T15:22:09;0.75;;;0.65;;
53666;SDS011;39568;51.026;5.468;2022-09-02T15:24:35;1.15;;;0.85;;
53666;SDS011;39568;51.026;5.468;2022-09-02T15:27:02;3.40;;;0.75;;
53666;SDS011;39568;51.026;5.468;2022-09-02T15:29:30;1.15;;;0.80;;
53666;SDS011;39568;51.026;5.468;2022-09-02T15:31:57;0.90;;;0.90;;
53666;SDS011;39568;51.026;5.468;2022-09-02T15:34:24;1.95;;;1.13;;
53666;SDS011;39568;51.026;5.468;2022-09-02T15:36:51;1.48;;;1.25;;
53666;SDS011;39568;51.026;5.468;2022-09-02T15:39:19;2.13;;;0.90;;
53666;SDS011;39568;51.026;5.468;2022-09-02T15:41:46;0.90;;;0.88;;
53666;SDS011;39568;51.026;5.468;2022-09-02T15:44:14;5.75;;;0.82;;
53666;SDS011;39568;51.026;5.468;2022-09-02T15:46:42;0.90;;;0.70;;
53666;SDS011;39568;51.026;5.468;2022-09-02T15:49:10;4.05;;;0.65;;